createdAt,value
2018-07-08T00:01:20.872Z,15.87
2018-07-08T00:03:49.240Z,17.03
2018-07-08T00:06:17.679Z,18.47
2018-07-08T00:08:45.878Z,18.13
2018-07-08T00:11:14.188Z,16.77
2018-07-08T00:13:42.439Z,16.33
2018-07-08T00:16:10.624Z,16.77
2018-07-08T00:18:39.157Z,16.90
2018-07-08T00:21:07.344Z,17.13
2018-07-08T00:23:35.463Z,15.63
2018-07-08T00:26:03.651Z,18.17
2018-07-08T00:28:31.854Z,19.73
2018-07-08T00:30:59.996Z,16.83
2018-07-08T00:33:28.193Z,16.13
2018-07-08T00:35:56.333Z,15.97
2018-07-08T00:38:24.541Z,15.63
2018-07-08T00:40:52.711Z,14.57
2018-07-08T00:43:20.913Z,15.17
2018-07-08T00:45:50.044Z,14.90
2018-07-08T00:48:18.339Z,14.80
2018-07-08T00:50:46.514Z,14.53
2018-07-08T00:53:14.776Z,15.67
2018-07-08T00:55:42.903Z,17.10
2018-07-08T00:58:11.143Z,15.13
2018-07-08T01:00:39.334Z,15.60
2018-07-08T01:03:08.615Z,15.37
2018-07-08T01:05:36.847Z,17.07
2018-07-08T01:08:05.280Z,15.70
2018-07-08T01:10:33.432Z,16.20
2018-07-08T01:13:02.268Z,18.27
2018-07-08T01:15:30.407Z,16.50
2018-07-08T01:17:58.635Z,18.50
2018-07-08T01:20:26.815Z,18.33
2018-07-08T01:22:55.004Z,18.30
2018-07-08T01:25:28.835Z,17.70
2018-07-08T01:27:56.980Z,17.13
2018-07-08T01:30:25.166Z,15.50
2018-07-08T01:32:53.320Z,16.47
2018-07-08T01:35:21.704Z,16.07
2018-07-08T01:37:49.838Z,15.93
2018-07-08T01:40:18.023Z,15.80
2018-07-08T01:42:46.158Z,15.40
2018-07-08T01:45:14.336Z,15.87
2018-07-08T01:47:42.480Z,17.27
2018-07-08T01:50:10.748Z,18.17
2018-07-08T01:52:39.051Z,15.43
2018-07-08T01:55:07.240Z,17.00
2018-07-08T01:57:35.393Z,16.63
2018-07-08T02:00:03.588Z,16.90
2018-07-08T02:02:31.916Z,16.40
2018-07-08T02:05:00.144Z,17.07
2018-07-08T02:07:28.278Z,16.73
2018-07-08T02:09:56.534Z,17.13
2018-07-08T02:12:24.702Z,18.40
2018-07-08T02:14:52.901Z,17.70
2018-07-08T02:17:21.089Z,16.30
2018-07-08T02:19:49.235Z,17.07
2018-07-08T02:22:17.395Z,18.10
2018-07-08T02:24:45.546Z,17.30
2018-07-08T02:27:13.723Z,18.43
2018-07-08T02:29:41.825Z,17.00
2018-07-08T02:32:10.005Z,16.93
2018-07-08T02:34:38.405Z,16.40
2018-07-08T02:37:06.521Z,17.47
2018-07-08T02:39:34.647Z,16.03
2018-07-08T02:42:02.788Z,16.23
2018-07-08T02:44:30.956Z,16.43
2018-07-08T02:46:59.880Z,14.53
2018-07-08T02:49:28.068Z,15.43
2018-07-08T02:51:56.212Z,16.57
2018-07-08T02:54:24.415Z,15.90
2018-07-08T02:56:52.571Z,14.80
2018-07-08T02:59:20.748Z,16.53
2018-07-08T03:01:49.008Z,15.57
2018-07-08T03:04:17.233Z,15.07
2018-07-08T03:06:45.392Z,15.77
2018-07-08T03:09:13.576Z,15.43
2018-07-08T03:11:41.712Z,17.00
2018-07-08T03:14:09.984Z,16.13
2018-07-08T03:16:38.130Z,16.33
2018-07-08T03:19:06.536Z,15.10
2018-07-08T03:21:34.703Z,15.90
2018-07-08T03:24:02.884Z,14.87
2018-07-08T03:26:31.056Z,16.43
2018-07-08T03:28:59.262Z,17.13
2018-07-08T03:31:27.405Z,17.23
2018-07-08T03:33:55.623Z,17.47
2018-07-08T03:36:23.720Z,17.87
2018-07-08T03:38:51.839Z,17.20
2018-07-08T03:41:20.022Z,17.30
2018-07-08T03:43:48.112Z,16.63
2018-07-08T03:46:16.232Z,18.13
2018-07-08T03:48:44.331Z,19.23
2018-07-08T03:53:47.195Z,17.43
2018-07-08T03:56:15.345Z,16.73
2018-07-08T03:58:43.427Z,17.80
2018-07-08T04:01:11.594Z,17.50
2018-07-08T04:03:39.747Z,17.70
2018-07-08T04:06:08.005Z,17.07
2018-07-08T04:08:36.180Z,17.27
2018-07-08T04:11:04.327Z,16.63
2018-07-08T04:13:32.526Z,17.40
2018-07-08T04:16:00.692Z,16.80
2018-07-08T04:18:28.848Z,16.70
2018-07-08T04:20:56.968Z,18.33
2018-07-08T04:23:25.135Z,18.13
2018-07-08T04:25:53.332Z,17.37
2018-07-08T04:28:21.503Z,17.40
2018-07-08T04:30:49.643Z,18.13
2018-07-08T04:33:17.819Z,18.43
2018-07-08T04:35:45.913Z,17.33
2018-07-08T04:38:14.066Z,18.50
2018-07-08T04:40:42.164Z,17.13
2018-07-08T04:43:11.126Z,18.73
2018-07-08T04:45:39.225Z,16.97
2018-07-08T04:48:07.466Z,18.47
2018-07-08T04:50:35.663Z,18.67
2018-07-08T04:53:03.844Z,17.03
2018-07-08T04:55:32.013Z,17.83
2018-07-08T04:58:00.227Z,19.00
2018-07-08T05:00:28.677Z,19.67
2018-07-08T05:02:56.821Z,17.70
2018-07-08T05:05:25.039Z,17.70
2018-07-08T05:07:53.267Z,17.53
2018-07-08T05:10:21.399Z,18.40
2018-07-08T05:12:49.572Z,18.27
2018-07-08T05:15:17.728Z,17.57
2018-07-08T05:17:45.920Z,16.47
2018-07-08T05:20:14.076Z,16.90
2018-07-08T05:22:42.235Z,18.33
2018-07-08T05:25:10.409Z,17.80
2018-07-08T05:27:38.548Z,17.80
2018-07-08T05:30:06.772Z,17.73
2018-07-08T05:32:34.944Z,16.83
2018-07-08T05:35:03.035Z,17.57
2018-07-08T05:37:31.169Z,16.43
2018-07-08T05:39:59.243Z,16.07
2018-07-08T05:42:27.400Z,15.63
2018-07-08T05:44:55.593Z,15.50
2018-07-08T05:47:23.772Z,15.87
2018-07-08T05:49:51.939Z,15.80
2018-07-08T05:52:20.077Z,14.60
2018-07-08T05:54:48.231Z,15.60
2018-07-08T05:57:16.435Z,14.13
2018-07-08T05:59:44.704Z,13.80
2018-07-08T06:02:13.715Z,14.50
2018-07-08T06:04:41.991Z,14.13
2018-07-08T06:07:10.166Z,13.93
2018-07-08T06:09:38.291Z,14.13
2018-07-08T06:12:06.804Z,13.30
2018-07-08T06:14:34.988Z,11.97
2018-07-08T06:17:03.106Z,12.03
2018-07-08T06:19:31.244Z,12.10
2018-07-08T06:21:59.336Z,11.87
2018-07-08T06:24:27.555Z,14.20
2018-07-08T06:26:55.649Z,11.30
2018-07-08T06:29:23.819Z,10.77
2018-07-08T06:31:52.869Z,9.93
2018-07-08T06:34:21.161Z,10.80
2018-07-08T06:36:49.273Z,7.83
2018-07-08T06:39:17.411Z,7.73
2018-07-08T06:41:45.508Z,7.67
2018-07-08T06:44:13.672Z,7.10
2018-07-08T06:46:41.844Z,7.33
2018-07-08T06:49:09.967Z,10.23
2018-07-08T06:51:38.084Z,8.80
2018-07-08T06:54:06.184Z,6.23
2018-07-08T06:56:34.308Z,5.07
2018-07-08T06:59:02.416Z,5.30
2018-07-08T07:01:30.595Z,4.50
2018-07-08T07:03:58.691Z,4.47
2018-07-08T07:06:26.799Z,4.40
2018-07-08T07:08:54.988Z,9.27
2018-07-08T07:11:23.731Z,5.47
2018-07-08T07:13:51.960Z,5.03
2018-07-08T07:16:20.067Z,4.90
2018-07-08T07:18:48.216Z,4.53
2018-07-08T07:21:16.412Z,4.83
2018-07-08T07:23:44.532Z,4.83
2018-07-08T07:26:12.613Z,4.83
2018-07-08T07:28:40.767Z,5.10
2018-07-08T07:31:08.823Z,4.97
2018-07-08T07:33:37.058Z,4.40
2018-07-08T07:36:05.408Z,4.57
2018-07-08T07:38:33.624Z,5.67
2018-07-08T07:41:01.795Z,4.63
2018-07-08T07:43:29.932Z,5.10
2018-07-08T07:45:58.104Z,4.73
2018-07-08T07:48:26.374Z,7.07
2018-07-08T07:50:54.955Z,5.10
2018-07-08T07:53:23.254Z,14.67
2018-07-08T07:55:51.390Z,4.13
2018-07-08T07:58:19.501Z,3.77
2018-07-08T08:00:47.681Z,3.93
2018-07-08T08:03:15.875Z,3.30
2018-07-08T08:05:44.054Z,3.77
2018-07-08T08:08:12.194Z,3.57
2018-07-08T08:10:40.427Z,3.60
2018-07-08T08:13:08.554Z,3.93
2018-07-08T08:15:36.745Z,4.10
2018-07-08T08:18:04.950Z,3.73
2018-07-08T08:20:33.123Z,3.20
2018-07-08T08:23:01.320Z,3.80
2018-07-08T08:25:29.576Z,2.97
2018-07-08T08:27:57.709Z,3.40
2018-07-08T08:30:25.946Z,3.20
2018-07-08T08:32:54.048Z,3.57
2018-07-08T08:35:22.169Z,2.90
2018-07-08T08:37:54.493Z,3.30
2018-07-08T08:40:23.812Z,3.10
2018-07-08T08:42:52.243Z,6.17
2018-07-08T08:45:21.424Z,3.67
2018-07-08T08:47:49.561Z,3.40
2018-07-08T08:50:18.009Z,3.13
2018-07-08T08:52:46.245Z,3.83
2018-07-08T08:55:16.480Z,3.80
2018-07-08T08:57:44.686Z,3.67
2018-07-08T09:00:14.362Z,3.87
2018-07-08T09:02:42.641Z,3.47
2018-07-08T09:05:11.624Z,4.43
2018-07-08T09:07:39.997Z,3.23
2018-07-08T09:10:08.333Z,3.67
2018-07-08T09:12:36.566Z,3.90
2018-07-08T09:15:04.850Z,3.30
2018-07-08T09:17:32.976Z,2.80
2018-07-08T09:20:01.205Z,3.03
2018-07-08T09:22:29.455Z,3.93
2018-07-08T09:24:57.629Z,3.67
2018-07-08T09:27:25.916Z,4.50
2018-07-08T09:29:54.185Z,4.07
2018-07-08T09:32:22.316Z,4.27
2018-07-08T09:34:50.467Z,3.80
2018-07-08T09:37:18.605Z,3.33
2018-07-08T09:39:46.723Z,6.50
2018-07-08T09:42:14.879Z,4.37
2018-07-08T09:44:43.024Z,4.40
2018-07-08T09:47:11.214Z,4.00
2018-07-08T09:49:39.398Z,3.90
2018-07-08T09:52:07.611Z,3.83
2018-07-08T09:54:35.736Z,4.03
2018-07-08T09:57:03.897Z,4.07
2018-07-08T09:59:32.163Z,4.17
2018-07-08T10:02:00.344Z,3.90
2018-07-08T10:04:28.498Z,4.50
2018-07-08T10:06:56.703Z,10.20
2018-07-08T10:09:25.411Z,4.63
2018-07-08T10:11:53.613Z,4.83
2018-07-08T10:14:22.892Z,4.77
2018-07-08T10:16:51.218Z,4.67
2018-07-08T10:19:20.356Z,4.83
2018-07-08T10:21:48.602Z,4.83
2018-07-08T10:24:16.851Z,4.50
2018-07-08T10:26:45.737Z,4.53
2018-07-08T10:29:15.184Z,4.33
2018-07-08T10:31:52.093Z,5.27
2018-07-08T10:34:20.764Z,4.77
2018-07-08T10:36:48.924Z,5.80
2018-07-08T10:39:17.551Z,4.80
2018-07-08T10:41:45.989Z,4.50
2018-07-08T10:44:14.395Z,4.30
2018-07-08T10:46:42.958Z,4.87
2018-07-08T10:49:11.129Z,4.37
2018-07-08T10:51:39.285Z,4.33
2018-07-08T10:54:07.747Z,13.33
2018-07-08T10:56:35.898Z,4.00
2018-07-08T10:59:04.135Z,4.03
2018-07-08T11:01:32.429Z,4.00
2018-07-08T11:04:00.693Z,4.00
2018-07-08T11:06:28.925Z,4.30
2018-07-08T11:08:57.219Z,4.27
2018-07-08T11:11:25.654Z,3.40
2018-07-08T11:13:53.860Z,3.80
2018-07-08T11:16:22.249Z,4.23
2018-07-08T11:18:50.532Z,3.63
2018-07-08T11:21:18.811Z,4.63
2018-07-08T11:23:47.011Z,4.80
2018-07-08T11:26:15.223Z,4.53
2018-07-08T11:28:43.401Z,4.13
2018-07-08T11:31:11.612Z,4.27
2018-07-08T11:33:39.759Z,4.30
2018-07-08T11:36:08.067Z,4.00
2018-07-08T11:38:36.223Z,3.73
2018-07-08T11:41:04.603Z,3.63
2018-07-08T11:43:32.866Z,3.27
2018-07-08T11:46:01.565Z,3.50
2018-07-08T11:48:29.787Z,3.87
2018-07-08T11:50:57.919Z,8.60
2018-07-08T11:53:26.116Z,3.93
2018-07-08T11:55:54.368Z,3.50
2018-07-08T11:58:22.658Z,3.50
2018-07-08T12:00:50.985Z,3.60
2018-07-08T12:03:19.288Z,3.47
2018-07-08T12:05:47.527Z,12.90
2018-07-08T12:08:15.725Z,4.30
2018-07-08T12:10:43.928Z,3.70
2018-07-08T12:13:12.245Z,3.70
2018-07-08T12:15:40.354Z,3.70
2018-07-08T12:18:08.758Z,3.77
2018-07-08T12:20:37.672Z,4.40
2018-07-08T12:23:05.905Z,3.30
2018-07-08T12:25:34.259Z,3.60
2018-07-08T12:28:02.461Z,3.13
2018-07-08T12:30:30.747Z,3.30
2018-07-08T12:32:58.860Z,3.30
2018-07-08T12:35:27.043Z,3.07
2018-07-08T12:37:55.347Z,3.27
2018-07-08T12:40:23.679Z,3.53
2018-07-08T12:42:51.834Z,3.50
2018-07-08T12:45:20.126Z,2.93
2018-07-08T12:47:49.427Z,2.87
2018-07-08T12:50:17.662Z,3.20
2018-07-08T12:52:45.817Z,3.47
2018-07-08T12:55:14.008Z,2.90
2018-07-08T12:57:42.108Z,2.87
2018-07-08T13:00:10.367Z,3.20
2018-07-08T13:02:38.771Z,3.20
2018-07-08T13:05:06.938Z,2.50
2018-07-08T13:07:35.102Z,14.37
2018-07-08T13:10:03.259Z,2.80
2018-07-08T13:12:31.461Z,2.90
2018-07-08T13:14:59.592Z,2.70
2018-07-08T13:17:27.745Z,2.70
2018-07-08T13:19:55.919Z,2.47
2018-07-08T13:22:24.608Z,2.60
2018-07-08T13:24:53.085Z,4.53
2018-07-08T13:27:21.247Z,4.53
2018-07-08T13:29:49.473Z,3.33
2018-07-08T13:32:17.752Z,3.00
2018-07-08T13:34:45.889Z,2.60
2018-07-08T13:37:14.082Z,30.10
2018-07-08T13:39:42.233Z,2.73
2018-07-08T13:42:17.118Z,2.90
2018-07-08T13:44:45.304Z,4.63
2018-07-08T13:47:13.452Z,2.83
2018-07-08T13:49:41.630Z,3.73
2018-07-08T13:52:09.779Z,2.77
2018-07-08T13:54:38.140Z,2.77
2018-07-08T13:57:06.382Z,3.80
2018-07-08T13:59:34.549Z,3.80
2018-07-08T14:02:02.797Z,2.77
2018-07-08T14:04:31.108Z,2.73
2018-07-08T14:06:59.480Z,2.40
2018-07-08T14:09:27.743Z,2.70
2018-07-08T14:11:55.907Z,2.93
2018-07-08T14:14:24.169Z,2.80
2018-07-08T14:16:52.483Z,3.80
2018-07-08T14:19:20.623Z,2.60
2018-07-08T14:21:48.853Z,3.20
2018-07-08T14:24:17.089Z,2.77
2018-07-08T14:26:45.244Z,2.73
2018-07-08T14:29:13.415Z,2.53
2018-07-08T14:31:41.638Z,2.50
2018-07-08T14:34:10.214Z,2.60
2018-07-08T14:36:38.632Z,2.33
2018-07-08T14:39:07.259Z,2.77
2018-07-08T14:41:35.714Z,3.03
2018-07-08T14:44:04.116Z,3.50
2018-07-08T14:46:32.437Z,2.90
2018-07-08T14:49:00.620Z,2.53
2018-07-08T14:51:29.100Z,3.13
2018-07-08T14:53:57.312Z,3.17
2018-07-08T14:56:25.662Z,4.50
2018-07-08T14:58:53.935Z,5.77
2018-07-08T15:01:22.883Z,3.47
2018-07-08T15:03:51.271Z,4.03
2018-07-08T15:06:19.448Z,7.97
2018-07-08T15:08:47.616Z,4.53
2018-07-08T15:11:15.855Z,2.73
2018-07-08T15:13:44.024Z,2.50
2018-07-08T15:16:12.271Z,2.63
2018-07-08T15:18:40.512Z,3.00
2018-07-08T15:21:08.680Z,4.40
2018-07-08T15:23:36.871Z,2.33
2018-07-08T15:26:05.047Z,2.73
2018-07-08T15:28:33.275Z,6.47
2018-07-08T15:31:01.693Z,2.87
2018-07-08T15:33:29.874Z,2.70
2018-07-08T15:35:58.093Z,3.70
2018-07-08T15:38:26.312Z,2.27
2018-07-08T15:40:54.505Z,2.00
2018-07-08T15:43:22.893Z,3.00
2018-07-08T15:45:51.095Z,2.60
2018-07-08T15:48:19.291Z,2.70
2018-07-08T15:50:47.478Z,4.23
2018-07-08T15:53:15.630Z,2.53
2018-07-08T15:55:43.964Z,5.53
2018-07-08T15:58:12.244Z,2.93
2018-07-08T16:00:40.492Z,2.57
2018-07-08T16:03:08.648Z,2.10
2018-07-08T16:05:36.856Z,4.30
2018-07-08T16:08:04.998Z,2.20
2018-07-08T16:10:33.336Z,2.87
2018-07-08T16:13:01.594Z,6.30
2018-07-08T16:15:29.912Z,3.30
2018-07-08T16:17:58.165Z,8.87
2018-07-08T16:20:26.393Z,8.27
2018-07-08T16:22:54.602Z,3.10
2018-07-08T16:25:22.944Z,2.97
2018-07-08T16:27:51.154Z,2.30
2018-07-08T16:30:19.343Z,2.67
2018-07-08T16:32:47.545Z,2.20
2018-07-08T16:35:15.685Z,6.27
2018-07-08T16:37:43.784Z,2.33
2018-07-08T16:40:13.317Z,2.30
2018-07-08T16:42:41.720Z,2.27
2018-07-08T16:45:10.078Z,2.43
2018-07-08T16:47:38.358Z,2.80
2018-07-08T16:50:06.494Z,2.30
2018-07-08T16:52:34.697Z,1.83
2018-07-08T16:55:02.877Z,2.97
2018-07-08T16:57:31.008Z,3.47
2018-07-08T16:59:59.296Z,2.30
2018-07-08T17:02:27.542Z,2.80
2018-07-08T17:04:55.660Z,2.37
2018-07-08T17:07:24.212Z,2.90
2018-07-08T17:09:52.523Z,2.77
2018-07-08T17:12:20.697Z,2.87
2018-07-08T17:14:48.865Z,2.50
2018-07-08T17:17:17.120Z,2.30
2018-07-08T17:19:45.268Z,2.00
2018-07-08T17:22:13.378Z,2.00
2018-07-08T17:24:41.536Z,2.13
2018-07-08T17:27:09.784Z,2.10
2018-07-08T17:29:38.047Z,2.23
2018-07-08T17:32:06.248Z,1.97
2018-07-08T17:34:34.565Z,1.80
2018-07-08T17:37:02.691Z,2.33
2018-07-08T17:39:30.909Z,2.30
2018-07-08T17:41:59.040Z,1.90
2018-07-08T17:44:27.219Z,2.43
2018-07-08T17:46:55.656Z,2.03
2018-07-08T17:49:23.803Z,2.20
2018-07-08T17:51:52.135Z,2.00
2018-07-08T17:54:20.790Z,2.00
2018-07-08T17:56:48.963Z,2.20
2018-07-08T17:59:17.207Z,1.90
2018-07-08T18:01:45.415Z,2.17
2018-07-08T18:04:13.643Z,2.37
2018-07-08T18:06:41.871Z,3.90
2018-07-08T18:09:10.069Z,2.80
2018-07-08T18:11:38.288Z,2.30
2018-07-08T18:14:06.875Z,2.00
2018-07-08T18:16:35.041Z,2.10
2018-07-08T18:19:03.408Z,2.00
2018-07-08T18:21:31.575Z,8.43
2018-07-08T18:23:59.781Z,17.90
2018-07-08T18:26:28.009Z,3.03
2018-07-08T18:28:56.252Z,26.50
2018-07-08T18:31:24.460Z,51.37
2018-07-08T18:33:52.755Z,3.13
2018-07-08T18:36:22.090Z,9.63
2018-07-08T18:38:50.292Z,15.00
2018-07-08T18:41:18.471Z,4.40
2018-07-08T18:43:46.710Z,13.03
2018-07-08T18:46:15.021Z,43.43
2018-07-08T18:48:43.167Z,4.27
2018-07-08T18:51:11.451Z,19.57
2018-07-08T18:53:39.700Z,13.80
2018-07-08T18:56:07.970Z,3.90
2018-07-08T18:58:36.209Z,2.70
2018-07-08T19:01:04.516Z,2.50
2018-07-08T19:03:32.767Z,28.63
2018-07-08T19:06:01.008Z,6.47
2018-07-08T19:08:29.734Z,2.60
2018-07-08T19:10:58.050Z,16.70
2018-07-08T19:13:26.511Z,2.80
2018-07-08T19:15:54.776Z,4.60
2018-07-08T19:18:22.974Z,2.50
2018-07-08T19:20:51.337Z,2.40
2018-07-08T19:23:19.527Z,3.57
2018-07-08T19:25:47.776Z,2.50
2018-07-08T19:28:16.033Z,2.77
2018-07-08T19:30:44.512Z,2.60
2018-07-08T19:33:12.828Z,2.40
2018-07-08T19:35:41.278Z,2.87
2018-07-08T19:38:09.560Z,2.20
2018-07-08T19:40:37.741Z,3.37
2018-07-08T19:43:06.062Z,2.20
2018-07-08T19:45:34.226Z,2.30
2018-07-08T19:48:02.729Z,2.57
2018-07-08T19:50:31.036Z,2.70
2018-07-08T19:52:59.491Z,2.20
2018-07-08T19:55:28.126Z,2.27
2018-07-08T19:57:56.551Z,40.83
2018-07-08T20:00:24.831Z,2.83
2018-07-08T20:02:53.180Z,2.83
2018-07-08T20:05:21.359Z,2.00
2018-07-08T20:07:49.541Z,2.37
2018-07-08T20:10:17.754Z,2.20
2018-07-08T20:12:45.966Z,1.70
2018-07-08T20:15:14.172Z,2.20
2018-07-08T20:17:42.394Z,2.20
2018-07-08T20:20:11.905Z,2.23
2018-07-08T20:22:40.817Z,2.03
2018-07-08T20:25:11.145Z,2.13
2018-07-08T20:27:40.099Z,2.47
2018-07-08T20:30:08.557Z,2.43
2018-07-08T20:32:37.172Z,2.30
2018-07-08T20:35:07.749Z,2.40
2018-07-08T20:37:34.439Z,2.20
2018-07-08T20:40:02.812Z,2.60
2018-07-08T20:42:31.139Z,2.83
2018-07-08T20:44:59.470Z,2.50
2018-07-08T20:47:27.782Z,2.83
2018-07-08T20:49:56.111Z,2.33
2018-07-08T20:52:24.442Z,2.17
2018-07-08T20:54:52.713Z,3.13
2018-07-08T20:57:20.988Z,2.33
2018-07-08T20:59:49.539Z,2.47
2018-07-08T21:02:18.028Z,3.50
2018-07-08T21:04:46.233Z,18.00
2018-07-08T21:07:14.601Z,3.13
2018-07-08T21:09:43.253Z,2.83
2018-07-08T21:12:11.676Z,2.80
2018-07-08T21:14:39.990Z,6.77
2018-07-08T21:17:08.397Z,5.03
2018-07-08T21:19:39.640Z,3.60
2018-07-08T21:22:08.708Z,3.10
2018-07-08T21:24:38.082Z,22.37
2018-07-08T21:27:06.421Z,3.07
2018-07-08T21:29:35.718Z,2.27
2018-07-08T21:32:05.088Z,2.93
2018-07-08T21:34:35.087Z,3.10
2018-07-08T21:37:03.256Z,3.50
2018-07-08T21:39:31.476Z,3.37
2018-07-08T21:41:59.745Z,4.10
2018-07-08T21:44:27.970Z,16.60
2018-07-08T21:46:56.122Z,2.50
2018-07-08T21:49:24.256Z,2.50
2018-07-08T21:51:52.551Z,2.13
2018-07-08T21:54:20.756Z,2.03
2018-07-08T21:56:48.892Z,2.30
2018-07-08T21:59:17.199Z,2.87
2018-07-08T22:01:51.151Z,2.50
2018-07-08T22:04:19.404Z,5.40
2018-07-08T22:06:47.559Z,2.37
2018-07-08T22:09:15.907Z,5.07
2018-07-08T22:11:44.180Z,2.43
2018-07-08T22:14:12.468Z,2.60
2018-07-08T22:16:40.640Z,6.93
2018-07-08T22:19:08.844Z,2.30
2018-07-08T22:21:37.096Z,2.77
2018-07-08T22:24:05.263Z,2.10
2018-07-08T22:26:33.469Z,2.30
2018-07-08T22:29:01.699Z,2.57
2018-07-08T22:31:29.845Z,2.10
2018-07-08T22:33:58.089Z,2.20
2018-07-08T22:36:26.565Z,2.63
2018-07-08T22:38:54.966Z,2.30
2018-07-08T22:41:23.235Z,2.47
2018-07-08T22:43:52.999Z,2.20
2018-07-08T22:46:21.446Z,2.13
2018-07-08T22:48:49.651Z,1.93
2018-07-08T22:51:18.144Z,2.50
2018-07-08T22:53:46.468Z,2.07
2018-07-08T22:56:14.751Z,2.13
2018-07-08T22:58:42.971Z,1.93
2018-07-08T23:01:16.774Z,1.90
2018-07-08T23:03:48.128Z,1.90
2018-07-08T23:06:17.449Z,2.00
2018-07-08T23:08:46.253Z,1.70
2018-07-08T23:11:14.467Z,2.10
2018-07-08T23:13:42.822Z,2.00
2018-07-08T23:16:11.000Z,1.53
2018-07-08T23:18:39.233Z,1.80
2018-07-08T23:21:07.480Z,1.90
2018-07-08T23:23:35.856Z,2.03
2018-07-08T23:26:04.204Z,1.90
2018-07-08T23:28:33.093Z,1.87
2018-07-08T23:31:01.360Z,1.90
2018-07-08T23:33:30.074Z,1.93
2018-07-08T23:35:58.360Z,1.93
2018-07-08T23:38:26.703Z,1.80
2018-07-08T23:40:54.929Z,2.00
2018-07-08T23:43:23.158Z,2.07
2018-07-08T23:45:51.392Z,1.87
2018-07-08T23:48:19.693Z,1.90
2018-07-08T23:50:47.871Z,1.83
2018-07-08T23:53:16.798Z,2.37
2018-07-08T23:55:45.234Z,2.03
2018-07-08T23:58:13.424Z,21.20
